sensor_id;sensor_type;location;lat;lon;timestamp;P1;durP1;ratioP1;P2;durP2;ratioP2
3995;SDS011;2012;49.794;9.722;2023-07-30T00:02:22;1.63;;;1.10;;
3995;SDS011;2012;49.794;9.722;2023-07-30T00:04:49;3.60;;;1.43;;
3995;SDS011;2012;49.794;9.722;2023-07-30T00:07:16;1.57;;;1.47;;
3995;SDS011;2012;49.794;9.722;2023-07-30T00:09:43;1.20;;;1.10;;
3995;SDS011;2012;49.794;9.722;2023-07-30T00:12:10;2.70;;;1.23;;
3995;SDS011;2012;49.794;9.722;2023-07-30T00:14:37;7.37;;;1.20;;
3995;SDS011;2012;49.794;9.722;2023-07-30T00:17:04;1.93;;;1.13;;
3995;SDS011;2012;49.794;9.722;2023-07-30T00:19:31;1.80;;;1.10;;
3995;SDS011;2012;49.794;9.722;2023-07-30T00:21:58;1.57;;;1.10;;
3995;SDS011;2012;49.794;9.722;2023-07-30T00:24:24;5.80;;;1.20;;
3995;SDS011;2012;49.794;9.722;2023-07-30T00:26:51;2.10;;;1.00;;
3995;SDS011;2012;49.794;9.722;2023-07-30T00:29:18;2.33;;;0.80;;
3995;SDS011;2012;49.794;9.722;2023-07-30T00:31:45;2.50;;;1.27;;
3995;SDS011;2012;49.794;9.722;2023-07-30T00:34:12;1.20;;;0.90;;
3995;SDS011;2012;49.794;9.722;2023-07-30T00:36:39;5.20;;;1.20;;
3995;SDS011;2012;49.794;9.722;2023-07-30T00:39:06;2.40;;;0.93;;
3995;SDS011;2012;49.794;9.722;2023-07-30T00:41:33;1.40;;;1.23;;
3995;SDS011;2012;49.794;9.722;2023-07-30T00:44:00;4.00;;;1.50;;
3995;SDS011;2012;49.794;9.722;2023-07-30T00:46:27;1.93;;;1.30;;
3995;SDS011;2012;49.794;9.722;2023-07-30T00:48:56;4.77;;;1.40;;
3995;SDS011;2012;49.794;9.722;2023-07-30T00:51:23;1.57;;;1.20;;
3995;SDS011;2012;49.794;9.722;2023-07-30T00:53:52;1.80;;;1.30;;
3995;SDS011;2012;49.794;9.722;2023-07-30T00:56:19;1.50;;;1.10;;
3995;SDS011;2012;49.794;9.722;2023-07-30T00:58:46;2.77;;;1.10;;
3995;SDS011;2012;49.794;9.722;2023-07-30T01:01:15;4.57;;;1.10;;
3995;SDS011;2012;49.794;9.722;2023-07-30T01:03:42;1.97;;;1.30;;
3995;SDS011;2012;49.794;9.722;2023-07-30T01:06:09;1.33;;;1.23;;
3995;SDS011;2012;49.794;9.722;2023-07-30T01:08:36;1.40;;;1.30;;
3995;SDS011;2012;49.794;9.722;2023-07-30T01:11:03;3.30;;;1.03;;
3995;SDS011;2012;49.794;9.722;2023-07-30T01:13:31;1.73;;;1.10;;
3995;SDS011;2012;49.794;9.722;2023-07-30T01:16:01;2.73;;;1.30;;
3995;SDS011;2012;49.794;9.722;2023-07-30T01:18:29;1.90;;;1.23;;
3995;SDS011;2012;49.794;9.722;2023-07-30T01:20:59;3.60;;;1.20;;
3995;SDS011;2012;49.794;9.722;2023-07-30T01:23:26;3.13;;;1.10;;
3995;SDS011;2012;49.794;9.722;2023-07-30T01:26:04;3.27;;;1.00;;
3995;SDS011;2012;49.794;9.722;2023-07-30T01:28:36;1.27;;;1.00;;
3995;SDS011;2012;49.794;9.722;2023-07-30T01:31:05;2.03;;;1.10;;
3995;SDS011;2012;49.794;9.722;2023-07-30T01:33:33;3.60;;;1.20;;
3995;SDS011;2012;49.794;9.722;2023-07-30T01:36:00;2.70;;;1.30;;
3995;SDS011;2012;49.794;9.722;2023-07-30T01:38:28;8.83;;;1.10;;
3995;SDS011;2012;49.794;9.722;2023-07-30T01:40:57;2.33;;;1.10;;
3995;SDS011;2012;49.794;9.722;2023-07-30T01:43:24;5.53;;;1.10;;
3995;SDS011;2012;49.794;9.722;2023-07-30T01:45:51;1.70;;;1.07;;
3995;SDS011;2012;49.794;9.722;2023-07-30T01:48:18;2.10;;;1.20;;
3995;SDS011;2012;49.794;9.722;2023-07-30T01:50:45;1.53;;;1.23;;
3995;SDS011;2012;49.794;9.722;2023-07-30T01:53:15;2.50;;;1.10;;
3995;SDS011;2012;49.794;9.722;2023-07-30T01:55:41;1.73;;;1.40;;
3995;SDS011;2012;49.794;9.722;2023-07-30T01:58:12;3.00;;;0.97;;
3995;SDS011;2012;49.794;9.722;2023-07-30T02:00:39;1.30;;;1.20;;
3995;SDS011;2012;49.794;9.722;2023-07-30T02:03:06;5.53;;;1.17;;
3995;SDS011;2012;49.794;9.722;2023-07-30T02:05:34;2.70;;;1.30;;
3995;SDS011;2012;49.794;9.722;2023-07-30T02:08:00;1.80;;;1.40;;
3995;SDS011;2012;49.794;9.722;2023-07-30T02:10:29;2.07;;;1.30;;
3995;SDS011;2012;49.794;9.722;2023-07-30T02:12:56;5.30;;;1.67;;
3995;SDS011;2012;49.794;9.722;2023-07-30T02:15:23;2.27;;;1.80;;
3995;SDS011;2012;49.794;9.722;2023-07-30T02:17:50;3.83;;;1.53;;
3995;SDS011;2012;49.794;9.722;2023-07-30T02:20:17;3.20;;;2.17;;
3995;SDS011;2012;49.794;9.722;2023-07-30T02:22:45;5.67;;;1.30;;
3995;SDS011;2012;49.794;9.722;2023-07-30T02:25:11;2.10;;;1.50;;
3995;SDS011;2012;49.794;9.722;2023-07-30T02:27:38;3.93;;;1.90;;
3995;SDS011;2012;49.794;9.722;2023-07-30T02:30:05;5.83;;;2.00;;
3995;SDS011;2012;49.794;9.722;2023-07-30T02:32:33;3.27;;;1.80;;
3995;SDS011;2012;49.794;9.722;2023-07-30T02:35:00;2.00;;;1.80;;
3995;SDS011;2012;49.794;9.722;2023-07-30T02:37:27;5.73;;;1.73;;
3995;SDS011;2012;49.794;9.722;2023-07-30T02:39:54;2.40;;;1.60;;
3995;SDS011;2012;49.794;9.722;2023-07-30T02:42:21;2.40;;;1.30;;
3995;SDS011;2012;49.794;9.722;2023-07-30T02:44:48;1.33;;;1.20;;
3995;SDS011;2012;49.794;9.722;2023-07-30T02:47:14;1.33;;;1.23;;
3995;SDS011;2012;49.794;9.722;2023-07-30T02:49:41;2.20;;;1.50;;
3995;SDS011;2012;49.794;9.722;2023-07-30T02:52:08;2.53;;;1.70;;
3995;SDS011;2012;49.794;9.722;2023-07-30T02:54:36;5.53;;;1.80;;
3995;SDS011;2012;49.794;9.722;2023-07-30T02:57:02;3.63;;;1.73;;
3995;SDS011;2012;49.794;9.722;2023-07-30T02:59:29;9.23;;;2.07;;
3995;SDS011;2012;49.794;9.722;2023-07-30T03:01:56;2.77;;;1.30;;
3995;SDS011;2012;49.794;9.722;2023-07-30T03:04:23;2.10;;;1.90;;
3995;SDS011;2012;49.794;9.722;2023-07-30T03:06:50;3.23;;;1.63;;
3995;SDS011;2012;49.794;9.722;2023-07-30T03:09:17;5.73;;;2.37;;
3995;SDS011;2012;49.794;9.722;2023-07-30T03:11:44;4.97;;;1.70;;
3995;SDS011;2012;49.794;9.722;2023-07-30T03:14:11;6.10;;;1.60;;
3995;SDS011;2012;49.794;9.722;2023-07-30T03:16:38;4.83;;;2.07;;
3995;SDS011;2012;49.794;9.722;2023-07-30T03:19:05;3.30;;;1.97;;
3995;SDS011;2012;49.794;9.722;2023-07-30T03:21:31;2.17;;;1.80;;
3995;SDS011;2012;49.794;9.722;2023-07-30T03:23:58;3.13;;;2.23;;
3995;SDS011;2012;49.794;9.722;2023-07-30T03:26:25;5.10;;;2.17;;
3995;SDS011;2012;49.794;9.722;2023-07-30T03:28:52;2.23;;;1.90;;
3995;SDS011;2012;49.794;9.722;2023-07-30T03:31:19;3.83;;;2.23;;
3995;SDS011;2012;49.794;9.722;2023-07-30T03:33:46;10.33;;;2.10;;
3995;SDS011;2012;49.794;9.722;2023-07-30T03:36:13;4.83;;;2.43;;
3995;SDS011;2012;49.794;9.722;2023-07-30T03:38:41;3.00;;;1.73;;
3995;SDS011;2012;49.794;9.722;2023-07-30T03:41:10;6.10;;;2.00;;
3995;SDS011;2012;49.794;9.722;2023-07-30T03:43:37;1.97;;;1.87;;
3995;SDS011;2012;49.794;9.722;2023-07-30T03:46:04;2.63;;;1.90;;
3995;SDS011;2012;49.794;9.722;2023-07-30T03:48:31;3.40;;;2.17;;
3995;SDS011;2012;49.794;9.722;2023-07-30T03:50:58;5.10;;;2.30;;
3995;SDS011;2012;49.794;9.722;2023-07-30T03:53:26;2.70;;;2.20;;
3995;SDS011;2012;49.794;9.722;2023-07-30T03:55:53;3.03;;;1.83;;
3995;SDS011;2012;49.794;9.722;2023-07-30T03:58:20;3.03;;;1.97;;
3995;SDS011;2012;49.794;9.722;2023-07-30T04:00:47;6.50;;;2.10;;
3995;SDS011;2012;49.794;9.722;2023-07-30T04:03:14;2.10;;;1.90;;
3995;SDS011;2012;49.794;9.722;2023-07-30T04:05:41;4.93;;;2.30;;
3995;SDS011;2012;49.794;9.722;2023-07-30T04:08:08;2.47;;;1.83;;
3995;SDS011;2012;49.794;9.722;2023-07-30T04:10:35;2.23;;;1.90;;
3995;SDS011;2012;49.794;9.722;2023-07-30T04:13:02;5.33;;;2.50;;
3995;SDS011;2012;49.794;9.722;2023-07-30T04:15:29;2.27;;;2.07;;
3995;SDS011;2012;49.794;9.722;2023-07-30T04:17:56;2.10;;;1.90;;
3995;SDS011;2012;49.794;9.722;2023-07-30T04:20:23;2.63;;;1.87;;
3995;SDS011;2012;49.794;9.722;2023-07-30T04:22:51;2.10;;;1.90;;
3995;SDS011;2012;49.794;9.722;2023-07-30T04:25:18;2.87;;;2.07;;
3995;SDS011;2012;49.794;9.722;2023-07-30T04:27:45;3.73;;;2.43;;
3995;SDS011;2012;49.794;9.722;2023-07-30T04:30:12;2.73;;;1.63;;
3995;SDS011;2012;49.794;9.722;2023-07-30T04:32:39;3.00;;;1.83;;
3995;SDS011;2012;49.794;9.722;2023-07-30T04:35:05;2.43;;;1.93;;
3995;SDS011;2012;49.794;9.722;2023-07-30T04:37:33;4.90;;;2.00;;
3995;SDS011;2012;49.794;9.722;2023-07-30T04:39:59;2.00;;;1.90;;
3995;SDS011;2012;49.794;9.722;2023-07-30T04:42:29;5.30;;;2.23;;
3995;SDS011;2012;49.794;9.722;2023-07-30T04:44:56;2.03;;;1.73;;
3995;SDS011;2012;49.794;9.722;2023-07-30T04:47:23;3.13;;;2.07;;
3995;SDS011;2012;49.794;9.722;2023-07-30T04:49:50;2.47;;;2.33;;
3995;SDS011;2012;49.794;9.722;2023-07-30T04:52:18;4.53;;;1.87;;
3995;SDS011;2012;49.794;9.722;2023-07-30T04:54:45;7.20;;;2.17;;
3995;SDS011;2012;49.794;9.722;2023-07-30T04:57:12;2.00;;;1.80;;
3995;SDS011;2012;49.794;9.722;2023-07-30T04:59:39;3.20;;;2.10;;
3995;SDS011;2012;49.794;9.722;2023-07-30T05:02:06;2.77;;;1.90;;
3995;SDS011;2012;49.794;9.722;2023-07-30T05:04:33;3.53;;;1.97;;
3995;SDS011;2012;49.794;9.722;2023-07-30T05:07:00;2.63;;;2.43;;
3995;SDS011;2012;49.794;9.722;2023-07-30T05:09:27;2.57;;;2.10;;
3995;SDS011;2012;49.794;9.722;2023-07-30T05:11:54;3.37;;;1.93;;
3995;SDS011;2012;49.794;9.722;2023-07-30T05:14:20;2.70;;;2.20;;
3995;SDS011;2012;49.794;9.722;2023-07-30T05:16:47;2.10;;;1.90;;
3995;SDS011;2012;49.794;9.722;2023-07-30T05:19:15;6.20;;;2.07;;
3995;SDS011;2012;49.794;9.722;2023-07-30T05:21:42;2.73;;;1.97;;
3995;SDS011;2012;49.794;9.722;2023-07-30T05:24:09;7.80;;;2.30;;
3995;SDS011;2012;49.794;9.722;2023-07-30T05:26:36;2.50;;;1.47;;
3995;SDS011;2012;49.794;9.722;2023-07-30T05:29:03;2.80;;;1.73;;
3995;SDS011;2012;49.794;9.722;2023-07-30T05:31:30;3.23;;;2.30;;
3995;SDS011;2012;49.794;9.722;2023-07-30T05:33:57;2.97;;;1.80;;
3995;SDS011;2012;49.794;9.722;2023-07-30T05:36:24;2.83;;;2.17;;
3995;SDS011;2012;49.794;9.722;2023-07-30T05:38:52;2.93;;;2.10;;
3995;SDS011;2012;49.794;9.722;2023-07-30T05:41:18;4.90;;;2.03;;
3995;SDS011;2012;49.794;9.722;2023-07-30T05:43:47;2.13;;;1.90;;
3995;SDS011;2012;49.794;9.722;2023-07-30T05:46:15;2.13;;;1.80;;
3995;SDS011;2012;49.794;9.722;2023-07-30T05:48:42;1.80;;;1.70;;
3995;SDS011;2012;49.794;9.722;2023-07-30T05:51:09;4.80;;;1.97;;
3995;SDS011;2012;49.794;9.722;2023-07-30T05:53:36;6.43;;;2.03;;
3995;SDS011;2012;49.794;9.722;2023-07-30T05:56:03;1.90;;;1.70;;
3995;SDS011;2012;49.794;9.722;2023-07-30T05:58:30;4.37;;;2.00;;
3995;SDS011;2012;49.794;9.722;2023-07-30T06:00:57;2.00;;;1.90;;
3995;SDS011;2012;49.794;9.722;2023-07-30T06:03:24;1.80;;;1.67;;
3995;SDS011;2012;49.794;9.722;2023-07-30T06:05:51;3.90;;;1.77;;
3995;SDS011;2012;49.794;9.722;2023-07-30T06:08:18;1.80;;;1.70;;
3995;SDS011;2012;49.794;9.722;2023-07-30T06:10:45;3.00;;;1.80;;
3995;SDS011;2012;49.794;9.722;2023-07-30T06:13:13;1.50;;;1.40;;
3995;SDS011;2012;49.794;9.722;2023-07-30T06:15:40;2.10;;;1.83;;
3995;SDS011;2012;49.794;9.722;2023-07-30T06:18:07;2.80;;;2.03;;
3995;SDS011;2012;49.794;9.722;2023-07-30T06:20:34;7.03;;;1.73;;
3995;SDS011;2012;49.794;9.722;2023-07-30T06:23:01;5.63;;;2.03;;
3995;SDS011;2012;49.794;9.722;2023-07-30T06:25:27;3.07;;;1.80;;
3995;SDS011;2012;49.794;9.722;2023-07-30T06:27:54;1.70;;;1.60;;
3995;SDS011;2012;49.794;9.722;2023-07-30T06:30:23;2.37;;;1.77;;
3995;SDS011;2012;49.794;9.722;2023-07-30T06:32:51;1.87;;;1.40;;
3995;SDS011;2012;49.794;9.722;2023-07-30T06:35:18;9.93;;;1.97;;
3995;SDS011;2012;49.794;9.722;2023-07-30T06:37:45;2.00;;;1.90;;
3995;SDS011;2012;49.794;9.722;2023-07-30T06:40:11;2.10;;;1.70;;
3995;SDS011;2012;49.794;9.722;2023-07-30T06:42:38;5.43;;;1.90;;
3995;SDS011;2012;49.794;9.722;2023-07-30T06:45:05;2.90;;;1.50;;
3995;SDS011;2012;49.794;9.722;2023-07-30T06:47:32;3.90;;;1.73;;
3995;SDS011;2012;49.794;9.722;2023-07-30T06:50:02;2.07;;;1.70;;
3995;SDS011;2012;49.794;9.722;2023-07-30T06:52:30;5.97;;;1.73;;
3995;SDS011;2012;49.794;9.722;2023-07-30T06:54:57;2.10;;;1.70;;
3995;SDS011;2012;49.794;9.722;2023-07-30T06:57:25;3.00;;;1.33;;
3995;SDS011;2012;49.794;9.722;2023-07-30T06:59:52;5.33;;;1.60;;
3995;SDS011;2012;49.794;9.722;2023-07-30T07:02:19;2.63;;;1.90;;
3995;SDS011;2012;49.794;9.722;2023-07-30T07:04:46;6.00;;;1.40;;
3995;SDS011;2012;49.794;9.722;2023-07-30T07:07:13;4.30;;;1.87;;
3995;SDS011;2012;49.794;9.722;2023-07-30T07:09:40;4.10;;;1.87;;
3995;SDS011;2012;49.794;9.722;2023-07-30T07:12:07;3.00;;;1.70;;
3995;SDS011;2012;49.794;9.722;2023-07-30T07:14:34;1.87;;;1.50;;
3995;SDS011;2012;49.794;9.722;2023-07-30T07:17:01;2.07;;;1.70;;
3995;SDS011;2012;49.794;9.722;2023-07-30T07:19:28;2.10;;;1.57;;
3995;SDS011;2012;49.794;9.722;2023-07-30T07:21:54;3.00;;;1.40;;
3995;SDS011;2012;49.794;9.722;2023-07-30T07:24:21;3.40;;;1.80;;
3995;SDS011;2012;49.794;9.722;2023-07-30T07:26:48;2.43;;;1.80;;
3995;SDS011;2012;49.794;9.722;2023-07-30T07:29:15;2.50;;;1.50;;
3995;SDS011;2012;49.794;9.722;2023-07-30T07:31:42;1.83;;;1.57;;
3995;SDS011;2012;49.794;9.722;2023-07-30T07:34:11;2.17;;;1.73;;
3995;SDS011;2012;49.794;9.722;2023-07-30T07:36:38;2.40;;;1.33;;
3995;SDS011;2012;49.794;9.722;2023-07-30T07:39:04;1.73;;;1.63;;
3995;SDS011;2012;49.794;9.722;2023-07-30T07:41:31;1.60;;;1.43;;
3995;SDS011;2012;49.794;9.722;2023-07-30T07:43:58;1.63;;;1.53;;
3995;SDS011;2012;49.794;9.722;2023-07-30T07:46:25;1.67;;;1.37;;
3995;SDS011;2012;49.794;9.722;2023-07-30T07:48:53;7.13;;;1.50;;
3995;SDS011;2012;49.794;9.722;2023-07-30T07:51:20;5.43;;;1.60;;
3995;SDS011;2012;49.794;9.722;2023-07-30T07:53:47;2.17;;;1.63;;
3995;SDS011;2012;49.794;9.722;2023-07-30T07:56:14;2.27;;;1.40;;
3995;SDS011;2012;49.794;9.722;2023-07-30T07:58:41;1.83;;;1.17;;
3995;SDS011;2012;49.794;9.722;2023-07-30T08:01:09;1.43;;;1.33;;
3995;SDS011;2012;49.794;9.722;2023-07-30T08:03:36;2.13;;;1.30;;
3995;SDS011;2012;49.794;9.722;2023-07-30T08:06:03;2.90;;;1.67;;
3995;SDS011;2012;49.794;9.722;2023-07-30T08:08:30;1.77;;;1.50;;
3995;SDS011;2012;49.794;9.722;2023-07-30T08:10:57;4.80;;;1.40;;
3995;SDS011;2012;49.794;9.722;2023-07-30T08:13:23;3.93;;;1.30;;
3995;SDS011;2012;49.794;9.722;2023-07-30T08:15:50;1.83;;;1.43;;
3995;SDS011;2012;49.794;9.722;2023-07-30T08:18:18;4.57;;;1.40;;
3995;SDS011;2012;49.794;9.722;2023-07-30T08:20:44;6.60;;;1.70;;
3995;SDS011;2012;49.794;9.722;2023-07-30T08:23:11;2.50;;;1.30;;
3995;SDS011;2012;49.794;9.722;2023-07-30T08:25:38;1.70;;;1.60;;
3995;SDS011;2012;49.794;9.722;2023-07-30T08:28:05;1.20;;;1.10;;
3995;SDS011;2012;49.794;9.722;2023-07-30T08:30:32;1.93;;;1.27;;
3995;SDS011;2012;49.794;9.722;2023-07-30T08:32:59;2.17;;;1.30;;
3995;SDS011;2012;49.794;9.722;2023-07-30T08:35:26;2.07;;;1.23;;
3995;SDS011;2012;49.794;9.722;2023-07-30T08:37:53;1.20;;;1.03;;
3995;SDS011;2012;49.794;9.722;2023-07-30T08:40:21;1.40;;;1.10;;
3995;SDS011;2012;49.794;9.722;2023-07-30T08:42:51;2.40;;;1.30;;
3995;SDS011;2012;49.794;9.722;2023-07-30T08:45:19;1.10;;;1.00;;
3995;SDS011;2012;49.794;9.722;2023-07-30T08:47:46;0.90;;;0.83;;
3995;SDS011;2012;49.794;9.722;2023-07-30T08:50:13;2.53;;;1.20;;
3995;SDS011;2012;49.794;9.722;2023-07-30T08:52:40;3.63;;;1.20;;
3995;SDS011;2012;49.794;9.722;2023-07-30T08:55:08;2.43;;;1.13;;
3995;SDS011;2012;49.794;9.722;2023-07-30T08:57:37;3.10;;;1.30;;
3995;SDS011;2012;49.794;9.722;2023-07-30T09:00:08;5.50;;;1.07;;
3995;SDS011;2012;49.794;9.722;2023-07-30T09:02:41;1.10;;;1.00;;
3995;SDS011;2012;49.794;9.722;2023-07-30T09:05:12;2.97;;;1.10;;
3995;SDS011;2012;49.794;9.722;2023-07-30T09:07:39;1.47;;;0.80;;
3995;SDS011;2012;49.794;9.722;2023-07-30T09:10:06;2.23;;;1.00;;
3995;SDS011;2012;49.794;9.722;2023-07-30T09:12:34;1.77;;;1.47;;
3995;SDS011;2012;49.794;9.722;2023-07-30T09:15:02;2.00;;;1.00;;
3995;SDS011;2012;49.794;9.722;2023-07-30T09:17:32;1.87;;;1.40;;
3995;SDS011;2012;49.794;9.722;2023-07-30T09:20:00;1.30;;;1.00;;
3995;SDS011;2012;49.794;9.722;2023-07-30T09:22:31;3.53;;;1.30;;
3995;SDS011;2012;49.794;9.722;2023-07-30T09:25:07;3.77;;;1.40;;
3995;SDS011;2012;49.794;9.722;2023-07-30T09:27:34;2.57;;;1.20;;
3995;SDS011;2012;49.794;9.722;2023-07-30T09:30:02;1.70;;;1.10;;
3995;SDS011;2012;49.794;9.722;2023-07-30T09:36:20;1.40;;;1.10;;
3995;SDS011;2012;49.794;9.722;2023-07-30T09:38:47;3.70;;;1.27;;
3995;SDS011;2012;49.794;9.722;2023-07-30T09:41:16;1.80;;;1.27;;
3995;SDS011;2012;49.794;9.722;2023-07-30T09:43:43;1.87;;;1.20;;
3995;SDS011;2012;49.794;9.722;2023-07-30T09:46:10;3.77;;;1.67;;
3995;SDS011;2012;49.794;9.722;2023-07-30T09:48:37;2.60;;;1.50;;
3995;SDS011;2012;49.794;9.722;2023-07-30T09:51:04;1.30;;;1.20;;
3995;SDS011;2012;49.794;9.722;2023-07-30T09:53:32;1.30;;;1.20;;
3995;SDS011;2012;49.794;9.722;2023-07-30T09:56:02;1.20;;;1.10;;
3995;SDS011;2012;49.794;9.722;2023-07-30T09:58:30;2.80;;;1.07;;
3995;SDS011;2012;49.794;9.722;2023-07-30T10:01:00;1.67;;;1.40;;
3995;SDS011;2012;49.794;9.722;2023-07-30T10:03:29;1.57;;;1.20;;
3995;SDS011;2012;49.794;9.722;2023-07-30T10:06:01;1.20;;;1.10;;
3995;SDS011;2012;49.794;9.722;2023-07-30T10:08:31;1.77;;;1.20;;
3995;SDS011;2012;49.794;9.722;2023-07-30T10:11:03;1.53;;;1.20;;
3995;SDS011;2012;49.794;9.722;2023-07-30T10:13:31;2.70;;;1.20;;
3995;SDS011;2012;49.794;9.722;2023-07-30T10:15:58;2.70;;;1.33;;
3995;SDS011;2012;49.794;9.722;2023-07-30T10:18:42;1.50;;;1.40;;
3995;SDS011;2012;49.794;9.722;2023-07-30T10:21:10;1.30;;;1.20;;
3995;SDS011;2012;49.794;9.722;2023-07-30T10:23:59;6.00;;;1.87;;
3995;SDS011;2012;49.794;9.722;2023-07-30T10:26:30;1.60;;;1.50;;
3995;SDS011;2012;49.794;9.722;2023-07-30T10:29:11;2.10;;;1.53;;
3995;SDS011;2012;49.794;9.722;2023-07-30T10:31:39;1.57;;;1.23;;
3995;SDS011;2012;49.794;9.722;2023-07-30T10:34:07;1.50;;;1.37;;
3995;SDS011;2012;49.794;9.722;2023-07-30T10:41:42;4.80;;;2.00;;
3995;SDS011;2012;49.794;9.722;2023-07-30T10:46:53;5.87;;;2.67;;
3995;SDS011;2012;49.794;9.722;2023-07-30T10:49:21;2.30;;;1.93;;
3995;SDS011;2012;49.794;9.722;2023-07-30T10:51:48;2.47;;;1.97;;
3995;SDS011;2012;49.794;9.722;2023-07-30T10:54:17;2.17;;;1.93;;
3995;SDS011;2012;49.794;9.722;2023-07-30T10:56:44;3.37;;;1.93;;
3995;SDS011;2012;49.794;9.722;2023-07-30T10:59:12;2.03;;;1.60;;
3995;SDS011;2012;49.794;9.722;2023-07-30T11:01:41;2.17;;;1.70;;
3995;SDS011;2012;49.794;9.722;2023-07-30T11:04:10;3.00;;;1.70;;
3995;SDS011;2012;49.794;9.722;2023-07-30T11:06:38;2.40;;;1.97;;
3995;SDS011;2012;49.794;9.722;2023-07-30T11:09:05;2.10;;;1.90;;
3995;SDS011;2012;49.794;9.722;2023-07-30T11:11:43;2.73;;;1.90;;
3995;SDS011;2012;49.794;9.722;2023-07-30T11:14:14;1.90;;;1.70;;
3995;SDS011;2012;49.794;9.722;2023-07-30T11:16:49;4.03;;;1.07;;
3995;SDS011;2012;49.794;9.722;2023-07-30T11:19:17;3.17;;;1.10;;
3995;SDS011;2012;49.794;9.722;2023-07-30T11:21:45;1.77;;;1.00;;
3995;SDS011;2012;49.794;9.722;2023-07-30T11:24:20;2.47;;;1.00;;
3995;SDS011;2012;49.794;9.722;2023-07-30T11:26:56;1.03;;;0.93;;
3995;SDS011;2012;49.794;9.722;2023-07-30T11:29:24;8.20;;;0.80;;
3995;SDS011;2012;49.794;9.722;2023-07-30T11:31:55;1.57;;;0.90;;
3995;SDS011;2012;49.794;9.722;2023-07-30T11:34:24;6.40;;;0.80;;
3995;SDS011;2012;49.794;9.722;2023-07-30T11:36:56;2.50;;;0.87;;
3995;SDS011;2012;49.794;9.722;2023-07-30T11:39:24;1.10;;;0.70;;
3995;SDS011;2012;49.794;9.722;2023-07-30T11:41:51;1.33;;;1.00;;
3995;SDS011;2012;49.794;9.722;2023-07-30T11:44:37;3.40;;;1.00;;
3995;SDS011;2012;49.794;9.722;2023-07-30T11:47:05;1.73;;;0.80;;
3995;SDS011;2012;49.794;9.722;2023-07-30T11:49:33;1.00;;;0.80;;
3995;SDS011;2012;49.794;9.722;2023-07-30T11:54:34;3.00;;;0.80;;
3995;SDS011;2012;49.794;9.722;2023-07-30T11:57:01;1.43;;;0.73;;
3995;SDS011;2012;49.794;9.722;2023-07-30T11:59:30;1.47;;;0.87;;
3995;SDS011;2012;49.794;9.722;2023-07-30T12:01:58;1.53;;;1.00;;
3995;SDS011;2012;49.794;9.722;2023-07-30T12:04:28;1.50;;;0.90;;
3995;SDS011;2012;49.794;9.722;2023-07-30T12:06:57;2.70;;;1.10;;
3995;SDS011;2012;49.794;9.722;2023-07-30T12:09:24;1.10;;;0.93;;
3995;SDS011;2012;49.794;9.722;2023-07-30T12:11:57;1.67;;;0.90;;
3995;SDS011;2012;49.794;9.722;2023-07-30T12:14:26;2.77;;;0.87;;
3995;SDS011;2012;49.794;9.722;2023-07-30T12:17:13;1.00;;;0.80;;
3995;SDS011;2012;49.794;9.722;2023-07-30T12:19:40;1.10;;;0.80;;
3995;SDS011;2012;49.794;9.722;2023-07-30T12:22:08;0.80;;;0.80;;
3995;SDS011;2012;49.794;9.722;2023-07-30T12:24:34;1.10;;;0.90;;
3995;SDS011;2012;49.794;9.722;2023-07-30T12:27:01;1.50;;;0.80;;
3995;SDS011;2012;49.794;9.722;2023-07-30T12:29:28;1.83;;;1.07;;
3995;SDS011;2012;49.794;9.722;2023-07-30T12:31:55;0.80;;;0.80;;
3995;SDS011;2012;49.794;9.722;2023-07-30T12:34:23;2.80;;;1.30;;
3995;SDS011;2012;49.794;9.722;2023-07-30T12:36:50;2.03;;;1.00;;
3995;SDS011;2012;49.794;9.722;2023-07-30T12:39:17;1.77;;;0.90;;
3995;SDS011;2012;49.794;9.722;2023-07-30T12:41:44;2.43;;;1.00;;
3995;SDS011;2012;49.794;9.722;2023-07-30T12:44:11;1.30;;;1.10;;
3995;SDS011;2012;49.794;9.722;2023-07-30T12:46:37;2.00;;;1.00;;
3995;SDS011;2012;49.794;9.722;2023-07-30T12:49:04;2.70;;;0.90;;
3995;SDS011;2012;49.794;9.722;2023-07-30T12:51:31;4.10;;;1.20;;
3995;SDS011;2012;49.794;9.722;2023-07-30T12:53:59;7.60;;;1.33;;
3995;SDS011;2012;49.794;9.722;2023-07-30T12:56:27;1.20;;;1.00;;
3995;SDS011;2012;49.794;9.722;2023-07-30T12:58:53;2.13;;;1.00;;
3995;SDS011;2012;49.794;9.722;2023-07-30T13:01:20;4.40;;;1.20;;
3995;SDS011;2012;49.794;9.722;2023-07-30T13:03:47;3.00;;;1.30;;
3995;SDS011;2012;49.794;9.722;2023-07-30T13:06:15;1.50;;;1.10;;
3995;SDS011;2012;49.794;9.722;2023-07-30T13:08:42;3.10;;;1.23;;
3995;SDS011;2012;49.794;9.722;2023-07-30T13:11:09;2.03;;;0.90;;
3995;SDS011;2012;49.794;9.722;2023-07-30T13:13:36;4.03;;;1.10;;
3995;SDS011;2012;49.794;9.722;2023-07-30T13:16:03;1.30;;;1.17;;
3995;SDS011;2012;49.794;9.722;2023-07-30T13:18:30;4.67;;;1.37;;
3995;SDS011;2012;49.794;9.722;2023-07-30T13:20:57;9.37;;;1.20;;
3995;SDS011;2012;49.794;9.722;2023-07-30T13:23:24;4.93;;;1.40;;
3995;SDS011;2012;49.794;9.722;2023-07-30T13:25:55;2.60;;;1.40;;
3995;SDS011;2012;49.794;9.722;2023-07-30T13:28:22;2.23;;;0.97;;
3995;SDS011;2012;49.794;9.722;2023-07-30T13:30:49;7.10;;;1.07;;
3995;SDS011;2012;49.794;9.722;2023-07-30T13:33:17;4.07;;;1.23;;
3995;SDS011;2012;49.794;9.722;2023-07-30T13:35:44;3.33;;;1.10;;
3995;SDS011;2012;49.794;9.722;2023-07-30T13:38:11;2.50;;;1.20;;
3995;SDS011;2012;49.794;9.722;2023-07-30T13:40:37;3.30;;;1.33;;
3995;SDS011;2012;49.794;9.722;2023-07-30T13:43:05;3.90;;;1.20;;
3995;SDS011;2012;49.794;9.722;2023-07-30T13:45:32;3.40;;;1.30;;
3995;SDS011;2012;49.794;9.722;2023-07-30T13:47:59;8.60;;;1.53;;
3995;SDS011;2012;49.794;9.722;2023-07-30T13:50:26;4.17;;;1.20;;
3995;SDS011;2012;49.794;9.722;2023-07-30T13:52:52;2.20;;;1.00;;
3995;SDS011;2012;49.794;9.722;2023-07-30T13:55:19;5.50;;;1.20;;
3995;SDS011;2012;49.794;9.722;2023-07-30T13:57:46;4.77;;;1.50;;
3995;SDS011;2012;49.794;9.722;2023-07-30T14:00:13;4.70;;;1.20;;
3995;SDS011;2012;49.794;9.722;2023-07-30T14:02:40;3.13;;;1.20;;
3995;SDS011;2012;49.794;9.722;2023-07-30T14:05:07;6.97;;;1.50;;
3995;SDS011;2012;49.794;9.722;2023-07-30T14:07:34;4.37;;;1.00;;
3995;SDS011;2012;49.794;9.722;2023-07-30T14:10:02;4.13;;;1.30;;
3995;SDS011;2012;49.794;9.722;2023-07-30T14:12:29;2.13;;;1.00;;
3995;SDS011;2012;49.794;9.722;2023-07-30T14:14:56;1.80;;;1.00;;
3995;SDS011;2012;49.794;9.722;2023-07-30T14:17:23;2.83;;;1.23;;
3995;SDS011;2012;49.794;9.722;2023-07-30T14:19:50;3.00;;;1.00;;
3995;SDS011;2012;49.794;9.722;2023-07-30T14:22:16;6.20;;;1.20;;
3995;SDS011;2012;49.794;9.722;2023-07-30T14:24:43;2.33;;;1.47;;
3995;SDS011;2012;49.794;9.722;2023-07-30T14:27:11;3.30;;;1.37;;
3995;SDS011;2012;49.794;9.722;2023-07-30T14:29:38;5.23;;;1.20;;
3995;SDS011;2012;49.794;9.722;2023-07-30T14:32:05;2.20;;;1.00;;
3995;SDS011;2012;49.794;9.722;2023-07-30T14:34:32;5.73;;;1.30;;
3995;SDS011;2012;49.794;9.722;2023-07-30T14:36:59;2.17;;;0.87;;
3995;SDS011;2012;49.794;9.722;2023-07-30T14:39:26;4.17;;;1.27;;
3995;SDS011;2012;49.794;9.722;2023-07-30T14:41:53;3.60;;;1.10;;
3995;SDS011;2012;49.794;9.722;2023-07-30T14:44:20;4.70;;;1.57;;
3995;SDS011;2012;49.794;9.722;2023-07-30T14:46:47;5.27;;;1.20;;
3995;SDS011;2012;49.794;9.722;2023-07-30T14:49:14;2.50;;;1.40;;
3995;SDS011;2012;49.794;9.722;2023-07-30T14:51:41;4.20;;;1.10;;
3995;SDS011;2012;49.794;9.722;2023-07-30T14:54:08;1.93;;;1.00;;
3995;SDS011;2012;49.794;9.722;2023-07-30T14:56:36;8.93;;;1.13;;
3995;SDS011;2012;49.794;9.722;2023-07-30T14:59:04;4.07;;;1.20;;
3995;SDS011;2012;49.794;9.722;2023-07-30T15:01:31;5.30;;;1.30;;
3995;SDS011;2012;49.794;9.722;2023-07-30T15:03:59;4.30;;;1.70;;
3995;SDS011;2012;49.794;9.722;2023-07-30T15:06:26;5.70;;;1.77;;
3995;SDS011;2012;49.794;9.722;2023-07-30T15:08:58;5.77;;;1.00;;
3995;SDS011;2012;49.794;9.722;2023-07-30T15:11:25;3.97;;;1.13;;
3995;SDS011;2012;49.794;9.722;2023-07-30T15:13:52;2.83;;;1.17;;
3995;SDS011;2012;49.794;9.722;2023-07-30T15:16:19;2.50;;;1.10;;
3995;SDS011;2012;49.794;9.722;2023-07-30T15:18:46;8.90;;;1.20;;
3995;SDS011;2012;49.794;9.722;2023-07-30T15:21:13;2.97;;;1.33;;
3995;SDS011;2012;49.794;9.722;2023-07-30T15:23:42;5.33;;;1.20;;
3995;SDS011;2012;49.794;9.722;2023-07-30T15:26:11;3.73;;;1.30;;
3995;SDS011;2012;49.794;9.722;2023-07-30T15:28:38;5.17;;;1.53;;
3995;SDS011;2012;49.794;9.722;2023-07-30T15:31:05;6.63;;;1.10;;
3995;SDS011;2012;49.794;9.722;2023-07-30T15:33:31;3.43;;;1.40;;